カンザスシティ の空港の天気 - METARとTAF

カンザスシティ国際空港 ( KMCI / MCI ) - アメリカ ミズーリ州カンザスシティ
飛行場実況気象(Metar)
観測時間04/21 11:53 CDT (04/21 16:53 UTC)
風向・風速南 10m/s 瞬間風速14m/s
視程10km以上
天気現象
少しの雲 雲底高度 3050m
全天の4割程度の雲 雲底高度 4880m
全天の4割程度の雲 雲底高度 7620m
気温26.1℃
湿度38%
気圧1008.7hPa
METARKMCI 211653Z 17020G27KT 10SM FEW100 SCT160 SCT250 26/11 A2981 RMK AO2 PK WND 18037/1626 SLP087 T02610106
過去の天気等 Google飛行場航空写真 Wunderground天気予報

過去48時間のMETAR

飛行場予報(TAF)
発表時間: 4/21 06:20 CDT (4/21 11:20 UTC)
予報対象時間: 21日7時 CDT ~ 22日7時 CDT
風向・風速南 6m/s
視程10km以上
少しの雲 雲底高度 4570m
21日8時 CDT から
風向・風速南 8m/s 瞬間風速 13m/s
視程10km以上
全天の4割程度の雲 雲底高度 4570m
21日13時 CDT から
風向・風速南 10m/s 瞬間風速 16m/s
視程10km以上
全天の4割程度の雲 雲底高度 4570m
21日20時 CDT から
風向・風速南 6m/s 瞬間風速 10m/s
視程10km以上
全天の4割程度の雲 雲底高度 1520m
21日22時 CDT から
風向・風速南 7m/s
視程10km以上
全天の4割程度の雲 雲底高度 7620m
22日4時 CDT から
風向・風速南 6m/s
視程10km以上
全天の8割程度の雲 雲底高度 760m
KMCI 211120Z 2112/2212 18011KT P6SM FEW150 WS020/21045KT
FM211300 19015G25KT P6SM SCT150
FM211800 18020G32KT P6SM SCT150
FM220100 18012G20KT P6SM SCT050
FM220300 17014KT P6SM SCT250 WS020/19045KT
FM220900 19011KT P6SM BKN025